Time;durP1;ratioP1;P1;durP2;ratioP2;P2;SDS_P1;SDS_P2;PMS_P1;PMS_P2;Temp;Humidity;BMP_temperature;BMP_pressure;BME280_temperature;BME280_humidity;BME280_pressure;Samples;Min_cycle;Max_cycle;Signal;HPM_P1;HPM_P2
2023/07/02 00:03:52;;;;;;;0.50;0.50;;;22.80;58.70;;;;;;8267203;28;20080;-48
2023/07/02 00:07:56;;;;;;;0.52;0.50;;;22.80;58.70;;;;;;8267422;28;20022;-48
2023/07/02 00:11:57;;;;;;;0.40;0.40;;;22.80;58.70;;;;;;8267025;28;20037;-50
2023/07/02 00:15:58;;;;;;;0.50;0.50;;;22.80;58.70;;;;;;8266555;28;20085;-49
2023/07/02 00:20:06;;;;;;;0.60;0.60;;;22.70;58.70;;;;;;8266348;28;20026;-48
2023/07/02 00:24:11;;;;;;;0.55;0.40;;;22.80;58.70;;;;;;8265606;28;20084;-48
2023/07/02 00:28:13;;;;;;;0.65;0.65;;;22.70;58.70;;;;;;8266206;28;20109;-48
2023/07/02 00:32:14;;;;;;;0.63;0.57;;;22.70;58.70;;;;;;8265914;28;20030;-48
2023/07/02 00:36:16;;;;;;;0.85;0.57;;;22.70;58.70;;;;;;8266447;28;20030;-50
2023/07/02 00:40:17;;;;;;;0.50;0.50;;;22.70;58.70;;;;;;8265574;28;20114;-48
2023/07/02 00:44:19;;;;;;;0.30;0.30;;;22.70;58.70;;;;;;8297020;28;20030;-48
2023/07/02 00:48:20;;;;;;;0.50;0.50;;;22.70;58.70;;;;;;8297212;28;20526;-47
2023/07/02 00:52:23;;;;;;;0.68;0.60;;;22.70;58.70;;;;;;8265404;28;20472;-50
2023/07/02 00:56:26;;;;;;;0.85;0.60;;;22.70;58.70;;;;;;8265364;28;20042;-48
2023/07/02 01:00:26;;;;;;;0.60;0.55;;;22.70;58.80;;;;;;8265077;28;20042;-48
2023/07/02 01:04:27;;;;;;;0.50;0.50;;;22.70;58.70;;;;;;8265022;28;20026;-48
2023/07/02 01:08:28;;;;;;;0.77;0.50;;;22.70;58.70;;;;;;8265525;28;20463;-48
2023/07/02 01:12:28;;;;;;;0.55;0.50;;;22.60;58.70;;;;;;8264952;28;20038;-49
2023/07/02 01:16:32;;;;;;;0.68;0.50;;;22.60;58.70;;;;;;8296318;28;20042;-50
2023/07/02 01:20:34;;;;;;;0.55;0.50;;;22.60;58.80;;;;;;8264498;28;20026;-50
2023/07/02 01:24:36;;;;;;;1.48;0.50;;;22.60;58.80;;;;;;8295775;28;20022;-48
2023/07/02 01:28:38;;;;;;;0.60;0.50;;;22.60;58.80;;;;;;8264357;28;20066;-50
2023/07/02 01:32:39;;;;;;;;;;;22.60;58.80;;;;;;8296050;28;20500;-49
2023/07/02 01:36:40;;;;;;;0.65;0.60;;;22.60;58.80;;;;;;8263401;28;20295;-48
2023/07/02 01:40:40;;;;;;;;;;;22.60;58.70;;;;;;8264424;28;20031;-49
2023/07/02 01:44:41;;;;;;;1.10;0.50;;;22.60;58.70;;;;;;8263880;28;19913;-49
2023/07/02 01:48:42;;;;;;;0.55;0.52;;;22.60;58.80;;;;;;8263810;28;20038;-48
2023/07/02 01:52:42;;;;;;;0.52;0.52;;;22.60;58.80;;;;;;8263536;28;20484;-49
2023/07/02 01:56:43;;;;;;;0.32;0.32;;;22.60;58.80;;;;;;8263273;28;20376;-48
2023/07/02 02:00:44;;;;;;;0.70;0.60;;;22.60;58.70;;;;;;8262031;28;20544;-48
2023/07/02 02:04:44;;;;;;;0.50;0.40;;;22.60;58.80;;;;;;8263235;28;20050;-51
2023/07/02 02:08:45;;;;;;;1.20;0.47;;;22.60;58.80;;;;;;8263242;28;20121;-49
2023/07/02 02:12:45;;;;;;;0.85;0.65;;;22.60;58.80;;;;;;8262942;28;20038;-48
2023/07/02 02:16:46;;;;;;;0.95;0.40;;;22.60;58.70;;;;;;8262782;28;20039;-49
2023/07/02 02:20:46;;;;;;;;;;;22.60;58.70;;;;;;8262777;28;20157;-47
2023/07/02 02:24:47;;;;;;;0.63;0.63;;;22.60;58.80;;;;;;8294225;28;19910;-48
2023/07/02 02:28:49;;;;;;;0.63;0.60;;;22.60;58.80;;;;;;8262360;28;20132;-48
2023/07/02 02:32:49;;;;;;;0.60;0.45;;;22.60;58.80;;;;;;8262130;28;20038;-49
2023/07/02 02:36:50;;;;;;;1.02;0.60;;;22.60;58.80;;;;;;8262328;28;20037;-48
2023/07/02 02:40:50;;;;;;;0.95;0.65;;;22.60;58.80;;;;;;8261888;28;20037;-49
2023/07/02 02:44:51;;;;;;;0.52;0.50;;;22.60;58.80;;;;;;8261950;28;20036;-49
2023/07/02 02:48:52;;;;;;;0.52;0.52;;;22.60;58.80;;;;;;8261736;28;20096;-49
2023/07/02 02:52:52;;;;;;;0.68;0.68;;;22.60;58.80;;;;;;8261917;28;20046;-51
2023/07/02 02:56:53;;;;;;;0.90;0.80;;;22.50;58.80;;;;;;8261920;28;20042;-48
2023/07/02 03:00:54;;;;;;;0.65;0.57;;;22.50;58.80;;;;;;8261574;28;20069;-48
2023/07/02 03:04:56;;;;;;;0.63;0.52;;;22.50;58.80;;;;;;8261637;28;20118;-49
2023/07/02 03:08:57;;;;;;;0.38;0.38;;;22.50;58.70;;;;;;8293352;28;20041;-49
2023/07/02 03:12:58;;;;;;;0.63;0.55;;;22.50;58.70;;;;;;8276677;28;20045;-49
2023/07/02 03:16:59;;;;;;;0.50;0.50;;;22.50;58.70;;;;;;8261514;28;20034;-50
2023/07/02 03:21:00;;;;;;;;;;;22.50;58.70;;;;;;8261856;28;20201;-48
2023/07/02 03:25:00;;;;;;;0.53;0.53;;;22.60;58.80;;;;;;8261153;28;19917;-50
2023/07/02 03:29:01;;;;;;;0.60;0.40;;;22.60;58.80;;;;;;8261183;28;20062;-47
2023/07/02 03:33:01;;;;;;;0.68;0.60;;;22.50;58.70;;;;;;8261371;28;20499;-48
2023/07/02 03:37:02;;;;;;;0.70;0.70;;;22.60;58.70;;;;;;8259874;28;20504;-48
2023/07/02 03:41:03;;;;;;;0.68;0.60;;;22.50;58.70;;;;;;8261031;28;20037;-49
2023/07/02 03:45:04;;;;;;;0.77;0.60;;;22.50;58.80;;;;;;8261241;28;20030;-50
2023/07/02 03:49:05;;;;;;;0.70;0.60;;;22.50;58.80;;;;;;8260917;28;20031;-48
2023/07/02 03:53:05;;;;;;;0.77;0.50;;;22.50;58.80;;;;;;8260883;28;20038;-49
2023/07/02 03:57:06;;;;;;;0.57;0.57;;;22.50;58.80;;;;;;8261925;28;20049;-51
2023/07/02 04:01:07;;;;;;;0.73;0.65;;;22.50;58.80;;;;;;8266784;28;20030;-49
2023/07/02 04:05:08;;;;;;;0.98;0.73;;;22.50;58.80;;;;;;8267176;28;20384;-49
2023/07/02 04:09:08;;;;;;;0.85;0.63;;;22.50;58.70;;;;;;8265554;28;20031;-49
2023/07/02 04:13:09;;;;;;;0.50;0.50;;;22.50;58.70;;;;;;8266357;28;20113;-49
2023/07/02 04:17:09;;;;;;;0.75;0.57;;;22.50;58.70;;;;;;8266666;28;20511;-48
2023/07/02 04:21:10;;;;;;;0.75;0.70;;;22.50;58.80;;;;;;8266358;28;20399;-49
2023/07/02 04:25:14;;;;;;;0.60;0.60;;;22.50;58.80;;;;;;8266291;28;20061;-49
2023/07/02 04:29:16;;;;;;;0.55;0.55;;;22.50;58.70;;;;;;8266755;28;20177;-49
2023/07/02 04:33:17;;;;;;;0.68;0.68;;;22.50;58.70;;;;;;8265151;28;20052;-51
2023/07/02 04:37:18;;;;;;;1.00;0.73;;;22.50;58.70;;;;;;8266159;28;20042;-48
2023/07/02 04:41:19;;;;;;;0.73;0.50;;;22.50;58.70;;;;;;8265862;28;20114;-49
2023/07/02 04:45:20;;;;;;;0.60;0.60;;;22.50;58.70;;;;;;8265479;28;20069;-48
2023/07/02 04:49:20;;;;;;;0.50;0.50;;;22.50;58.70;;;;;;8297141;28;20035;-48
2023/07/02 04:53:21;;;;;;;0.50;0.50;;;22.50;58.70;;;;;;8265427;28;20038;-51
2023/07/02 04:57:22;;;;;;;0.40;0.40;;;22.50;58.70;;;;;;8265219;28;20173;-48
2023/07/02 05:01:22;;;;;;;1.95;1.10;;;22.50;58.70;;;;;;8265203;28;20038;-50
2023/07/02 05:05:23;;;;;;;0.73;0.73;;;22.50;58.70;;;;;;8265764;28;20041;-47
2023/07/02 05:09:24;;;;;;;1.05;0.50;;;22.50;58.80;;;;;;8264721;28;20034;-49
2023/07/02 05:13:24;;;;;;;0.65;0.60;;;22.50;58.80;;;;;;8264913;28;20035;-48
2023/07/02 05:17:25;;;;;;;0.90;0.65;;;22.50;58.80;;;;;;8263209;28;20421;-48
2023/07/02 05:21:25;;;;;;;0.60;0.60;;;22.50;58.80;;;;;;8264334;28;20392;-48
2023/07/02 05:25:26;;;;;;;0.82;0.60;;;22.50;58.70;;;;;;8262996;28;20057;-49
2023/07/02 05:29:27;;;;;;;0.60;0.60;;;22.50;58.70;;;;;;8264007;28;20469;-50
2023/07/02 05:33:27;;;;;;;0.95;0.73;;;22.50;58.70;;;;;;8264193;28;20039;-48
2023/07/02 05:37:28;;;;;;;0.60;0.60;;;22.50;58.70;;;;;;8295799;28;20030;-49
2023/07/02 05:41:30;;;;;;;0.80;0.80;;;22.40;58.70;;;;;;8263758;28;20046;-49
2023/07/02 05:45:31;;;;;;;0.80;0.70;;;22.40;58.70;;;;;;8263938;28;20041;-49
2023/07/02 05:49:32;;;;;;;;;;;22.50;58.70;;;;;;8264074;28;20039;-49
2023/07/02 05:53:32;;;;;;;0.93;0.67;;;22.50;58.70;;;;;;8263729;28;19914;-49
2023/07/02 05:57:33;;;;;;;1.10;0.77;;;22.40;58.70;;;;;;8263414;28;20038;-48
2023/07/02 06:01:33;;;;;;;;;;;22.50;58.70;;;;;;8263585;28;20038;-49
2023/07/02 06:05:34;;;;;;;0.60;0.60;;;22.50;58.70;;;;;;8263316;28;19910;-49
2023/07/02 06:09:35;;;;;;;1.40;0.70;;;22.50;58.70;;;;;;8262024;28;20023;-49
2023/07/02 06:13:36;;;;;;;0.63;0.60;;;22.50;58.70;;;;;;8262986;28;20034;-49
2023/07/02 06:17:36;;;;;;;0.80;0.80;;;22.50;58.70;;;;;;8262692;28;20042;-49
2023/07/02 06:21:37;;;;;;;1.30;0.80;;;22.50;58.70;;;;;;8262091;28;20035;-48
2023/07/02 06:25:37;;;;;;;1.05;0.60;;;22.50;58.70;;;;;;8263054;28;20108;-49
2023/07/02 06:29:38;;;;;;;0.85;0.80;;;22.50;58.70;;;;;;8262713;28;20113;-49
2023/07/02 06:33:40;;;;;;;1.13;0.85;;;22.50;58.80;;;;;;8262541;28;20072;-47
2023/07/02 06:37:41;;;;;;;1.02;0.60;;;22.40;58.70;;;;;;8262436;28;20034;-50
2023/07/02 06:41:41;;;;;;;0.65;0.63;;;22.50;58.70;;;;;;8261993;28;20038;-47
2023/07/02 06:45:42;;;;;;;1.10;0.70;;;22.40;58.70;;;;;;8262333;28;20034;-47
2023/07/02 06:49:43;;;;;;;0.90;0.70;;;22.50;58.70;;;;;;8261905;28;20121;-48
2023/07/02 06:53:44;;;;;;;;;;;22.40;58.70;;;;;;8262219;28;20034;-49
2023/07/02 06:57:45;;;;;;;1.17;0.70;;;22.50;58.70;;;;;;8261725;28;19941;-49
2023/07/02 07:01:46;;;;;;;1.05;0.90;;;22.50;58.70;;;;;;8262066;28;20058;-50
2023/07/02 07:05:47;;;;;;;1.35;0.80;;;22.50;58.70;;;;;;8261635;28;20033;-50
2023/07/02 07:09:47;;;;;;;1.20;0.90;;;22.50;58.70;;;;;;8261612;28;20042;-50
2023/07/02 07:13:48;;;;;;;1.02;0.93;;;22.50;58.70;;;;;;8261430;28;20035;-50
2023/07/02 07:17:49;;;;;;;1.08;0.70;;;22.50;58.70;;;;;;8261257;28;20049;-48
2023/07/02 07:21:49;;;;;;;1.20;0.80;;;22.50;58.70;;;;;;8261453;28;20035;-50
2023/07/02 07:25:50;;;;;;;1.00;0.80;;;22.50;58.70;;;;;;8292810;28;20061;-50
2023/07/02 07:29:51;;;;;;;;;;;22.40;58.60;;;;;;8261694;28;20053;-48
2023/07/02 07:33:51;;;;;;;0.70;0.70;;;22.50;58.70;;;;;;8264007;28;20375;-49
2023/07/02 07:37:52;;;;;;;1.27;0.85;;;22.40;58.70;;;;;;8267989;28;20049;-51
2023/07/02 07:41:53;;;;;;;1.02;0.80;;;22.40;58.70;;;;;;8267788;28;20380;-48
2023/07/02 07:45:54;;;;;;;0.98;0.70;;;22.50;58.70;;;;;;8267331;28;20029;-48
2023/07/02 07:49:55;;;;;;;1.10;0.90;;;22.40;58.70;;;;;;8267353;28;20042;-49
2023/07/02 07:53:55;;;;;;;1.20;0.80;;;22.40;58.70;;;;;;8267258;28;20088;-50
2023/07/02 07:57:56;;;;;;;1.70;1.13;;;22.40;58.70;;;;;;8298556;28;20034;-50
2023/07/02 08:01:57;;;;;;;1.20;0.80;;;22.40;58.70;;;;;;8265641;28;20146;-50
2023/07/02 08:05:57;;;;;;;1.02;0.90;;;22.50;58.70;;;;;;8267099;28;20066;-48
2023/07/02 08:09:58;;;;;;;;;;;22.40;58.70;;;;;;8267134;28;20476;-48
2023/07/02 08:13:59;;;;;;;1.60;1.03;;;22.40;58.70;;;;;;8266756;28;19913;-49
2023/07/02 08:18:00;;;;;;;1.05;0.77;;;22.50;58.70;;;;;;8266642;28;20049;-50
2023/07/02 08:22:00;;;;;;;1.73;1.15;;;22.40;58.70;;;;;;8266487;28;20176;-51
2023/07/02 08:26:01;;;;;;;1.58;0.88;;;22.40;58.60;;;;;;8266061;28;20116;-49
2023/07/02 08:30:02;;;;;;;;;;;22.40;59.10;;;;;;8266473;28;20039;-48
2023/07/02 08:34:03;;;;;;;1.80;0.90;;;22.40;58.60;;;;;;8266138;28;19964;-49
2023/07/02 08:38:03;;;;;;;1.67;1.00;;;22.40;58.70;;;;;;8266262;28;20180;-48
2023/07/02 08:42:04;;;;;;;1.83;1.15;;;22.40;58.70;;;;;;8265758;28;20031;-48
2023/07/02 08:46:06;;;;;;;1.48;1.13;;;22.40;58.70;;;;;;8296737;28;20413;-49
2023/07/02 08:50:07;;;;;;;0.88;0.80;;;22.40;58.70;;;;;;8265622;28;20042;-50
2023/07/02 08:54:08;;;;;;;1.17;0.90;;;22.40;58.60;;;;;;8265754;28;20040;-48
2023/07/02 08:58:10;;;;;;;;;;;22.40;58.70;;;;;;8265736;28;20027;-49
2023/07/02 09:02:10;;;;;;;1.17;0.85;;;22.40;58.60;;;;;;8265463;28;19906;-49
2023/07/02 09:06:12;;;;;;;1.17;0.90;;;22.40;58.60;;;;;;8265220;28;20045;-50
2023/07/02 09:10:26;;;;;;;1.50;1.20;;;22.40;58.60;;;;;;8265118;28;20616;-47
2023/07/02 09:14:28;;;;;;;1.63;1.10;;;22.50;59.20;;;;;;8264746;28;20117;-49
2023/07/02 09:18:29;;;;;;;1.45;1.17;;;22.40;59.20;;;;;;8264966;28;20041;-48
2023/07/02 09:22:30;;;;;;;1.58;1.08;;;22.40;58.60;;;;;;8264546;28;20109;-48
2023/07/02 09:26:31;;;;;;;2.05;1.00;;;22.40;58.70;;;;;;8295530;28;20524;-48
2023/07/02 09:30:31;;;;;;;1.83;1.00;;;22.40;58.60;;;;;;8264499;28;20050;-50
2023/07/02 09:34:34;;;;;;;1.25;1.05;;;22.40;58.60;;;;;;8279333;28;20038;-48
2023/07/02 09:38:35;;;;;;;1.85;1.17;;;22.40;58.60;;;;;;8264268;28;20076;-49
2023/07/02 09:42:38;;;;;;;1.52;1.23;;;22.40;58.60;;;;;;8264165;28;20113;-48
2023/07/02 09:46:49;;;;;;;1.55;1.17;;;22.50;58.70;;;;;;8263952;28;20041;-49
2023/07/02 09:50:50;;;;;;;1.63;1.20;;;22.50;58.70;;;;;;8263477;28;20073;-48
2023/07/02 09:54:51;;;;;;;2.63;1.30;;;22.40;58.60;;;;;;8263440;28;20043;-48
2023/07/02 09:58:51;;;;;;;1.63;1.38;;;22.40;58.70;;;;;;8294672;28;20043;-50
2023/07/02 10:02:52;;;;;;;1.17;1.02;;;22.40;58.70;;;;;;8263285;28;20038;-50
2023/07/02 10:06:54;;;;;;;2.22;1.30;;;22.40;58.70;;;;;;8263790;28;20027;-52
2023/07/02 10:11:09;;;;;;;1.52;1.10;;;22.40;58.70;;;;;;8262989;28;20166;-51
2023/07/02 10:15:10;;;;;;;1.95;1.20;;;22.40;58.70;;;;;;8263036;28;20033;-50
2023/07/02 10:19:12;;;;;;;1.15;1.00;;;22.40;58.70;;;;;;8261811;28;20124;-49
2023/07/02 10:23:13;;;;;;;1.33;1.20;;;22.40;58.60;;;;;;8262680;28;20033;-49
2023/07/02 10:27:14;;;;;;;1.80;1.15;;;22.40;58.60;;;;;;8262551;28;20535;-48
2023/07/02 10:31:21;;;;;;;2.50;1.70;;;22.40;58.60;;;;;;8262700;28;20069;-49
2023/07/02 10:35:21;;;;;;;2.75;1.20;;;22.40;58.60;;;;;;8262642;28;20103;-51
2023/07/02 10:39:22;;;;;;;1.52;1.30;;;22.40;58.60;;;;;;8262279;28;20045;-48
2023/07/02 10:43:30;;;;;;;1.40;1.17;;;22.40;58.60;;;;;;8262303;28;20056;-48
2023/07/02 10:47:31;;;;;;;1.50;1.08;;;22.40;58.60;;;;;;8262387;28;20057;-51
2023/07/02 10:51:31;;;;;;;1.88;1.30;;;22.40;58.60;;;;;;8260999;28;20041;-49
2023/07/02 10:55:32;;;;;;;1.75;1.20;;;22.40;58.60;;;;;;8262041;28;20035;-51
2023/07/02 10:59:33;;;;;;;2.17;1.33;;;22.40;58.60;;;;;;8276898;28;20050;-51
2023/07/02 11:03:33;;;;;;;1.83;1.23;;;22.40;58.60;;;;;;8261920;28;20117;-49
2023/07/02 11:07:34;;;;;;;1.48;1.15;;;22.40;58.60;;;;;;8261775;28;20049;-48
2023/07/02 11:11:35;;;;;;;1.33;1.13;;;22.40;58.60;;;;;;8261592;28;20030;-50
2023/07/02 11:15:37;;;;;;;1.42;1.00;;;22.50;58.70;;;;;;8261861;28;20041;-48
2023/07/02 11:19:37;;;;;;;1.63;1.30;;;22.40;58.60;;;;;;8261299;28;20428;-49
2023/07/02 11:23:38;;;;;;;1.70;1.15;;;22.40;58.60;;;;;;8261648;28;20112;-47
2023/07/02 11:27:39;;;;;;;1.48;1.17;;;22.40;58.60;;;;;;8261184;28;20054;-51
2023/07/02 11:31:41;;;;;;;1.40;1.20;;;22.40;58.60;;;;;;8261318;28;20471;-48
2023/07/02 11:35:43;;;;;;;1.63;1.08;;;22.40;58.60;;;;;;8261522;28;20116;-51
2023/07/02 11:39:44;;;;;;;1.83;1.30;;;22.50;58.60;;;;;;8261049;28;20038;-49
2023/07/02 11:43:45;;;;;;;2.33;1.40;;;22.40;58.60;;;;;;8261835;28;20034;-49
2023/07/02 11:47:45;;;;;;;;;;;22.50;58.60;;;;;;8260483;28;20033;-49
2023/07/02 11:51:49;;;;;;;1.10;0.83;;;22.40;58.60;;;;;;8261001;28;19910;-49
2023/07/02 11:55:50;;;;;;;2.08;1.25;;;22.40;58.50;;;;;;8292545;28;20117;-48
2023/07/02 11:59:52;;;;;;;2.25;1.40;;;22.50;58.60;;;;;;8260999;28;20042;-48
2023/07/02 12:03:52;;;;;;;1.50;1.10;;;22.40;58.50;;;;;;8260865;28;20455;-48
2023/07/02 12:07:53;;;;;;;1.83;1.20;;;22.50;58.60;;;;;;8261214;28;20109;-50
2023/07/02 12:11:54;;;;;;;;;;;22.50;58.60;;;;;;8261270;28;20093;-48
2023/07/02 12:15:54;;;;;;;2.57;1.50;;;22.50;58.50;;;;;;8260692;28;20386;-51
2023/07/02 12:19:55;;;;;;;2.08;1.40;;;22.50;59.10;;;;;;8262894;28;20519;-51
2023/07/02 12:23:56;;;;;;;2.20;1.50;;;22.50;58.60;;;;;;8266988;28;20097;-49
2023/07/02 12:27:56;;;;;;;1.70;1.10;;;22.40;58.50;;;;;;8266049;28;20046;-51
2023/07/02 12:31:57;;;;;;;2.53;1.65;;;22.50;58.60;;;;;;8266766;28;20615;-49
2023/07/02 12:35:59;;;;;;;1.75;1.20;;;22.50;59.10;;;;;;8297549;28;20219;-49
2023/07/02 12:40:00;;;;;;;1.67;1.23;;;22.50;58.60;;;;;;8297534;28;20034;-50
2023/07/02 12:44:00;;;;;;;2.33;1.35;;;22.50;58.60;;;;;;8265782;28;20034;-48
2023/07/02 12:48:01;;;;;;;1.60;1.10;;;22.40;58.50;;;;;;8264249;28;20154;-47
2023/07/02 12:52:02;;;;;;;1.40;1.20;;;22.50;58.60;;;;;;8265627;28;20034;-49
2023/07/02 12:56:03;;;;;;;;;;;22.50;58.60;;;;;;8264528;28;20596;-48
2023/07/02 13:00:06;;;;;;;1.83;1.30;;;22.40;58.50;;;;;;8265273;28;20361;-51
2023/07/02 13:04:06;;;;;;;1.58;1.05;;;22.50;58.60;;;;;;8296600;28;20278;-49
2023/07/02 13:08:07;;;;;;;2.92;1.50;;;22.50;58.60;;;;;;8265193;28;20041;-48
2023/07/02 13:12:08;;;;;;;2.75;1.20;;;22.50;58.50;;;;;;8264877;28;20034;-49
2023/07/02 13:16:09;;;;;;;2.20;1.30;;;22.50;58.50;;;;;;8296445;28;20073;-48
2023/07/02 13:20:10;;;;;;;2.05;1.40;;;22.50;58.50;;;;;;8264796;28;20038;-50
2023/07/02 13:24:12;;;;;;;1.30;1.15;;;22.50;58.50;;;;;;8264600;28;20025;-48
2023/07/02 13:28:12;;;;;;;1.83;1.50;;;22.50;58.50;;;;;;8264427;28;20053;-48
2023/07/02 13:32:13;;;;;;;1.20;1.00;;;22.50;58.50;;;;;;8264357;28;20038;-50
2023/07/02 13:36:14;;;;;;;1.63;1.40;;;22.50;58.50;;;;;;8264488;28;20110;-49
2023/07/02 13:40:15;;;;;;;1.95;1.40;;;22.40;58.40;;;;;;8264235;28;20042;-48
2023/07/02 13:44:16;;;;;;;1.83;1.30;;;22.50;58.50;;;;;;8263989;28;20026;-48
2023/07/02 13:48:16;;;;;;;1.90;1.25;;;22.40;58.40;;;;;;8263889;28;20038;-50
2023/07/02 13:52:17;;;;;;;1.48;1.15;;;22.40;58.50;;;;;;8263539;28;20034;-48
2023/07/02 13:56:18;;;;;;;1.73;1.33;;;22.50;58.50;;;;;;8263448;28;20026;-49
2023/07/02 14:00:18;;;;;;;1.35;1.17;;;22.40;58.50;;;;;;8295016;28;20030;-49
2023/07/02 14:04:19;;;;;;;1.83;1.30;;;22.50;58.50;;;;;;8263129;28;20109;-49
2023/07/02 14:08:20;;;;;;;1.90;1.52;;;22.40;58.40;;;;;;8263510;28;20045;-49
2023/07/02 14:12:20;;;;;;;;;;;22.40;58.50;;;;;;8263606;28;20027;-49
2023/07/02 14:16:21;;;;;;;1.93;1.40;;;22.50;58.50;;;;;;8262878;28;19910;-49
2023/07/02 14:20:22;;;;;;;1.90;1.20;;;22.50;58.50;;;;;;8262798;28;20110;-48
2023/07/02 14:24:23;;;;;;;1.98;1.42;;;22.40;58.40;;;;;;8262954;28;20042;-48
2023/07/02 14:28:25;;;;;;;2.00;1.33;;;22.40;58.40;;;;;;8262582;28;20064;-48
2023/07/02 14:32:26;;;;;;;2.10;1.40;;;22.50;58.40;;;;;;8262631;28;20023;-47
2023/07/02 14:36:27;;;;;;;1.65;1.10;;;22.50;58.40;;;;;;8262716;28;20030;-50
2023/07/02 14:40:27;;;;;;;1.73;1.20;;;22.50;58.40;;;;;;8262584;28;20117;-48
2023/07/02 14:44:28;;;;;;;1.85;1.25;;;22.50;58.40;;;;;;8262058;28;20027;-48
2023/07/02 14:48:29;;;;;;;2.58;1.10;;;22.50;58.40;;;;;;8262509;28;20041;-51
2023/07/02 14:52:29;;;;;;;1.90;1.25;;;22.50;58.40;;;;;;8261982;28;20035;-48
2023/07/02 14:56:30;;;;;;;2.58;1.35;;;22.50;58.50;;;;;;8293399;28;20511;-48
2023/07/02 15:00:32;;;;;;;1.85;1.50;;;22.40;58.40;;;;;;8261755;28;20042;-48
2023/07/02 15:04:32;;;;;;;2.05;1.30;;;22.40;58.50;;;;;;8293375;28;20110;-50
2023/07/02 15:08:33;;;;;;;2.22;1.38;;;22.50;58.50;;;;;;8261963;28;20043;-50
2023/07/02 15:12:34;;;;;;;1.58;1.20;;;22.50;58.50;;;;;;8261859;28;20037;-50
2023/07/02 15:16:34;;;;;;;2.63;1.33;;;22.50;58.50;;;;;;8261484;28;20038;-51
2023/07/02 15:20:36;;;;;;;2.30;1.50;;;22.50;58.50;;;;;;8261605;28;20074;-51
2023/07/02 15:24:37;;;;;;;1.92;1.33;;;22.50;58.50;;;;;;8261508;28;20029;-49
2023/07/02 15:28:38;;;;;;;2.03;1.40;;;22.50;58.50;;;;;;8261337;28;20447;-49
2023/07/02 15:32:38;;;;;;;2.33;1.55;;;22.50;58.50;;;;;;8261415;28;20113;-47
2023/07/02 15:36:39;;;;;;;2.38;1.40;;;22.40;58.40;;;;;;8261636;28;20054;-49
2023/07/02 15:40:39;;;;;;;;;;;22.50;58.50;;;;;;8260337;28;20034;-47
2023/07/02 15:44:40;;;;;;;2.13;1.40;;;22.40;58.40;;;;;;8293062;28;19917;-48
2023/07/02 15:48:41;;;;;;;2.03;1.48;;;22.40;58.50;;;;;;8261267;28;20243;-50
2023/07/02 15:52:42;;;;;;;2.50;1.30;;;22.50;58.50;;;;;;8260917;28;20038;-49
2023/07/02 15:56:42;;;;;;;2.45;1.40;;;22.50;58.50;;;;;;8266573;28;20042;-48
2023/07/02 16:00:43;;;;;;;2.90;1.30;;;22.50;58.50;;;;;;8268108;28;20069;-48
2023/07/02 16:04:45;;;;;;;2.20;1.30;;;22.40;58.40;;;;;;8267082;28;20030;-49
2023/07/02 16:08:46;;;;;;;2.25;1.42;;;22.50;58.50;;;;;;8267807;28;20042;-48
2023/07/02 16:12:48;;;;;;;1.90;1.23;;;22.40;58.40;;;;;;8266886;28;20034;-49
2023/07/02 16:16:53;;;;;;;1.67;1.00;;;22.50;58.50;;;;;;8266877;28;20066;-49
2023/07/02 16:20:56;;;;;;;1.38;1.17;;;22.40;58.40;;;;;;8266807;28;20058;-48
2023/07/02 16:24:57;;;;;;;1.98;1.30;;;22.50;58.50;;;;;;8266391;28;20046;-48
2023/07/02 16:28:58;;;;;;;1.60;1.20;;;22.50;58.40;;;;;;8266505;28;20046;-49
2023/07/02 16:32:59;;;;;;;2.67;1.50;;;22.50;58.50;;;;;;8266479;28;20045;-49
2023/07/02 16:37:00;;;;;;;1.73;1.33;;;22.50;58.50;;;;;;8266463;28;20061;-49
2023/07/02 16:41:01;;;;;;;1.80;1.40;;;22.50;58.50;;;;;;8266592;28;20039;-49
2023/07/02 16:45:05;;;;;;;2.65;1.80;;;22.50;58.50;;;;;;8265942;28;20117;-50
2023/07/02 16:49:07;;;;;;;2.05;1.13;;;22.50;58.40;;;;;;8265814;28;20030;-50
2023/07/02 16:53:08;;;;;;;2.08;1.45;;;22.50;58.50;;;;;;8265779;28;20038;-49
2023/07/02 16:57:09;;;;;;;1.85;1.20;;;22.50;58.40;;;;;;8265346;28;20095;-48
2023/07/02 17:01:11;;;;;;;1.88;1.10;;;22.50;59.00;;;;;;8265326;28;20128;-48
2023/07/02 17:05:12;;;;;;;2.20;1.50;;;22.40;58.40;;;;;;8265130;28;20479;-49
2023/07/02 17:09:26;;;;;;;2.30;1.80;;;22.40;58.40;;;;;;8264922;28;20404;-50
2023/07/02 17:13:27;;;;;;;2.08;1.30;;;22.50;58.40;;;;;;8265387;28;20034;-49
2023/07/02 17:17:28;;;;;;;2.83;1.40;;;22.50;58.40;;;;;;8279915;28;20080;-50
2023/07/02 17:21:29;;;;;;;1.88;1.33;;;22.50;58.50;;;;;;8264752;28;20047;-49
2023/07/02 17:25:30;;;;;;;1.55;1.10;;;22.40;58.40;;;;;;8264600;28;20126;-49
2023/07/02 17:29:31;;;;;;;2.17;1.38;;;22.50;58.50;;;;;;8264339;28;20049;-48
2023/07/02 17:33:31;;;;;;;;;;;22.50;58.50;;;;;;8264902;28;20038;-48
2023/07/02 17:37:32;;;;;;;1.50;1.13;;;22.50;58.50;;;;;;8264535;28;19913;-48
2023/07/02 17:41:33;;;;;;;2.00;1.30;;;22.50;58.50;;;;;;8264012;28;20042;-49
2023/07/02 17:45:34;;;;;;;2.15;1.40;;;22.50;58.50;;;;;;8264063;28;20070;-51
2023/07/02 17:49:35;;;;;;;;;;;22.50;58.50;;;;;;8264123;28;20042;-50
2023/07/02 17:53:36;;;;;;;1.92;1.15;;;22.50;58.50;;;;;;8262434;28;20190;-49
2023/07/02 17:57:38;;;;;;;1.90;1.30;;;22.50;58.50;;;;;;8263579;28;20676;-48
2023/07/02 18:01:46;;;;;;;1.80;1.05;;;22.50;58.50;;;;;;8263407;28;20046;-49
2023/07/02 18:05:47;;;;;;;1.90;1.45;;;22.40;58.50;;;;;;8264045;28;20035;-48
2023/07/02 18:09:51;;;;;;;2.10;1.35;;;22.50;58.50;;;;;;8263303;28;20036;-47
2023/07/02 18:13:51;;;;;;;1.80;1.20;;;22.50;58.50;;;;;;8263055;28;20040;-49
2023/07/02 18:17:52;;;;;;;1.45;1.30;;;22.40;58.40;;;;;;8262351;28;20531;-49
2023/07/02 18:21:55;;;;;;;2.08;1.60;;;22.50;58.50;;;;;;8262853;28;20042;-47
2023/07/02 18:25:59;;;;;;;2.28;1.58;;;22.50;58.50;;;;;;8262536;28;20057;-48
2023/07/02 18:30:00;;;;;;;2.05;1.33;;;22.50;58.50;;;;;;8262716;28;20036;-50
2023/07/02 18:34:01;;;;;;;2.08;1.45;;;22.40;58.40;;;;;;8262797;28;20038;-48
2023/07/02 18:38:01;;;;;;;2.38;1.38;;;22.50;58.50;;;;;;8262597;28;20042;-48
2023/07/02 18:42:06;;;;;;;2.28;1.60;;;22.50;59.00;;;;;;8262212;28;20498;-49
2023/07/02 18:46:07;;;;;;;2.05;1.25;;;22.40;58.50;;;;;;8262208;28;20034;-48
2023/07/02 18:50:08;;;;;;;2.17;1.38;;;22.50;58.50;;;;;;8262680;28;20038;-48
2023/07/02 18:54:08;;;;;;;;;;;22.40;58.40;;;;;;8262735;28;20034;-49
2023/07/02 18:58:09;;;;;;;1.63;1.27;;;22.40;58.40;;;;;;8261990;28;19964;-50
2023/07/02 19:02:09;;;;;;;1.75;1.40;;;22.50;58.50;;;;;;8261649;28;20101;-49
2023/07/02 19:06:11;;;;;;;2.53;1.40;;;22.50;58.50;;;;;;8261980;28;20431;-48
2023/07/02 19:10:12;;;;;;;1.50;1.20;;;22.50;58.50;;;;;;8261502;28;20042;-48
2023/07/02 19:14:13;;;;;;;2.45;1.45;;;22.50;58.40;;;;;;8261821;28;20066;-49
2023/07/02 19:18:14;;;;;;;2.42;1.58;;;22.50;58.40;;;;;;8261626;28;20037;-50
2023/07/02 19:22:19;;;;;;;1.40;1.17;;;22.50;58.50;;;;;;8261583;28;20507;-48
2023/07/02 19:26:20;;;;;;;1.63;1.30;;;22.50;58.50;;;;;;8261214;28;20055;-48
2023/07/02 19:30:21;;;;;;;2.33;1.35;;;22.40;58.40;;;;;;8266822;28;20038;-49
2023/07/02 19:34:22;;;;;;;2.13;1.50;;;22.50;58.50;;;;;;8268572;28;20046;-50
2023/07/02 19:38:23;;;;;;;2.17;1.50;;;22.40;58.40;;;;;;8268217;28;20042;-49
2023/07/02 19:42:23;;;;;;;2.38;1.88;;;22.50;58.50;;;;;;8267650;28;20041;-50
2023/07/02 19:46:25;;;;;;;1.80;1.40;;;22.50;58.50;;;;;;8267695;28;20035;-48
2023/07/02 19:50:26;;;;;;;2.10;1.38;;;22.50;58.50;;;;;;8267584;28;20041;-48
2023/07/02 19:54:26;;;;;;;2.13;1.50;;;22.50;58.50;;;;;;8267436;28;20037;-49
2023/07/02 19:58:27;;;;;;;2.15;1.45;;;22.40;58.40;;;;;;8267091;28;20046;-51
2023/07/02 20:02:28;;;;;;;2.58;1.60;;;22.40;58.50;;;;;;8267431;28;20069;-50
2023/07/02 20:06:29;;;;;;;;;;;22.40;58.40;;;;;;8267720;28;20026;-49
2023/07/02 20:10:30;;;;;;;2.20;1.40;;;22.40;58.40;;;;;;8298526;28;19926;-49
2023/07/02 20:14:30;;;;;;;;;;;22.50;58.50;;;;;;8267473;28;20336;-48
2023/07/02 20:18:35;;;;;;;1.93;1.27;;;22.40;58.40;;;;;;8266733;28;20359;-49
2023/07/02 20:22:36;;;;;;;1.75;1.40;;;22.40;58.40;;;;;;8266542;28;20027;-51
2023/07/02 20:26:36;;;;;;;2.72;1.73;;;22.50;58.50;;;;;;8298026;28;20047;-49
2023/07/02 20:30:37;;;;;;;1.77;1.15;;;22.40;58.40;;;;;;8266403;28;20041;-48
2023/07/02 20:34:38;;;;;;;2.67;1.50;;;22.40;58.40;;;;;;8266251;28;20079;-47
2023/07/02 20:38:41;;;;;;;2.15;1.35;;;22.40;58.40;;;;;;8266434;28;20035;-48
2023/07/02 20:42:42;;;;;;;1.90;1.30;;;22.50;58.50;;;;;;8265417;28;20718;-49
2023/07/02 20:46:46;;;;;;;1.50;1.00;;;22.40;58.40;;;;;;8265853;28;20026;-47
2023/07/02 20:50:47;;;;;;;1.95;1.30;;;22.40;58.50;;;;;;8265727;28;20487;-48
2023/07/02 20:54:52;;;;;;;1.83;1.20;;;22.40;58.40;;;;;;8264515;28;20427;-48
2023/07/02 20:58:52;;;;;;;2.05;1.15;;;22.40;58.50;;;;;;8265382;28;20042;-49
2023/07/02 21:02:53;;;;;;;1.77;1.33;;;22.40;58.50;;;;;;8265631;28;20034;-49
2023/07/02 21:06:53;;;;;;;1.88;1.25;;;22.40;58.50;;;;;;8264127;28;20038;-50